»·PEaware :: UAL386 KSFO-KSNA

UAL386 :: KSFO-KSNA

FLIGHT INFORMATION

Flight Status: Arrived
Operator:
United Airlines
More flights by this operator :: More flights under this callsign
Pilot: Michael F. (26726)
Aircraft: BOEING 737-800
(B738)
More flights by this aircraft type
Origin: KSFO San Francisco Intl
United States
Destination: KSNA John Wayne-Orange Co
United States
More flights between these airports :: More routes between these airports
Route: +OFFSH2 MCKEY TILLT TILLT2
File this flight plan on PilotEdge
Remarks: RMK / SIMBRIEF
Altitude:
(Current/Filed)
33,000ft
Speed:
(Current/Filed)
462kts
Departed: 17-Oct-20 07:21 PM
Arrived: 17-Oct-20 08:26 PM
Distance/Time
Traveled:
323nm/1:05
Distance/Time
To Go:
Arrived

Flight Plot

Page will automatically refresh every two minutes.

Flight plan parsing failed; only flown route is shown


Map Options




Map Legend


Flown Route
Filed Route
Departure Airport
Arrival Airport
Navaid (VOR, NDB)
Fix

Horizontal Profiles

Position Reports

Time Latitude Longitude Heading Altitude Ground
Speed
17-Oct-20 18:31 37.618242 -122.388120 130 22ft 0kts
17-Oct-20 18:32 37.618242 -122.388120 130 22ft 0kts
17-Oct-20 18:33 37.618242 -122.388120 130 22ft 0kts
17-Oct-20 18:34 37.618242 -122.388120 130 22ft 0kts
17-Oct-20 18:36 37.618242 -122.388120 130 22ft 0kts
17-Oct-20 18:37 37.618242 -122.388120 130 22ft 0kts
17-Oct-20 18:38 37.618242 -122.388120 130 22ft 0kts
17-Oct-20 18:39 37.618242 -122.388120 130 22ft 0kts
17-Oct-20 18:40 37.618242 -122.388120 130 22ft 0kts
17-Oct-20 18:41 37.618242 -122.388120 130 22ft 0kts
17-Oct-20 18:42 37.618242 -122.388120 130 22ft 0kts
17-Oct-20 18:43 37.618242 -122.388120 130 22ft 0kts
17-Oct-20 18:44 37.618242 -122.388120 130 22ft 0kts
17-Oct-20 18:45 37.618242 -122.388120 130 22ft 0kts
17-Oct-20 18:46 37.618242 -122.388120 130 22ft 0kts
17-Oct-20 18:47 37.618242 -122.388120 130 22ft 0kts
17-Oct-20 18:48 37.618242 -122.388120 130 22ft 0kts
17-Oct-20 18:49 37.618242 -122.388120 130 22ft 0kts
17-Oct-20 18:50 37.618242 -122.388120 130 22ft 0kts
17-Oct-20 18:50 37.618242 -122.388120 130 22ft 0kts
17-Oct-20 18:52 37.618242 -122.388120 130 22ft 0kts
17-Oct-20 18:53 37.618242 -122.388120 130 22ft 0kts
17-Oct-20 18:54 37.618242 -122.388120 130 22ft 0kts
17-Oct-20 18:55 37.618242 -122.388120 130 22ft 0kts
17-Oct-20 18:55 37.618242 -122.388120 130 22ft 0kts
17-Oct-20 18:57 37.618242 -122.388120 130 22ft 0kts
17-Oct-20 18:57 37.618242 -122.388120 130 22ft 0kts
17-Oct-20 18:58 37.618242 -122.388120 130 22ft 0kts
17-Oct-20 18:59 37.618242 -122.388120 130 22ft 0kts
17-Oct-20 19:00 37.618242 -122.388120 130 22ft 0kts
17-Oct-20 19:01 37.618242 -122.388120 130 22ft 0kts
17-Oct-20 19:02 37.618242 -122.388120 130 22ft 0kts
17-Oct-20 19:03 37.618242 -122.388120 130 22ft 0kts
17-Oct-20 19:04 37.618242 -122.388120 130 22ft 0kts
17-Oct-20 19:05 37.618242 -122.388120 130 22ft 0kts
17-Oct-20 19:06 37.618294 -122.388197 129 22ft 2kts
17-Oct-20 19:07 37.618462 -122.388784 88 22ft 0kts
17-Oct-20 19:08 37.618462 -122.388784 88 22ft 0kts
17-Oct-20 19:09 37.618462 -122.388784 88 22ft 0kts
17-Oct-20 19:10 37.619353 -122.389641 297 22ft 8kts
17-Oct-20 19:11 37.620101 -122.391438 299 22ft 0kts
17-Oct-20 19:12 37.620593 -122.392033 350 22ft 7kts
17-Oct-20 19:13 37.622639 -122.389420 82 22ft 14kts
17-Oct-20 19:14 37.620575 -122.384206 118 22ft 19kts
17-Oct-20 19:15 37.617512 -122.379459 177 22ft 14kts
17-Oct-20 19:16 37.614178 -122.381258 208 22ft 13kts
17-Oct-20 19:17 37.610404 -122.383801 209 22ft 16kts
17-Oct-20 19:18 37.608699 -122.383966 88 22ft 3kts
17-Oct-20 19:19 37.608642 -122.382997 98 22ft 3kts
17-Oct-20 19:20 37.621162 -122.373995 26 22ft 154kts
17-Oct-20 19:21 37.666981 -122.361437 349 2730ft 189kts
17-Oct-20 19:22 37.691855 -122.415029 235 4756ft 249kts
17-Oct-20 19:23 37.636220 -122.476541 222 7727ft 278kts
17-Oct-20 19:24 37.572034 -122.538079 219 10378ft 305kts
17-Oct-20 19:25 37.499080 -122.612292 220 11899ft 363kts
17-Oct-20 19:26 37.416084 -122.690269 211 14521ft 378kts
17-Oct-20 19:27 37.312707 -122.689231 164 17079ft 391kts
17-Oct-20 19:28 37.205957 -122.653203 164 19561ft 403kts
17-Oct-20 19:29 37.095878 -122.616407 164 21822ft 414kts
17-Oct-20 19:30 36.982810 -122.578714 164 23806ft 425kts
17-Oct-20 19:31 36.866045 -122.546921 166 25563ft 434kts
17-Oct-20 19:32 36.746542 -122.515859 166 27115ft 442kts
17-Oct-20 19:33 36.624951 -122.484390 166 28452ft 449kts
17-Oct-20 19:34 36.501878 -122.452642 165 29587ft 455kts
17-Oct-20 19:35 36.391924 -122.383195 128 30394ft 450kts
17-Oct-20 19:36 36.308444 -122.266701 129 31258ft 451kts
17-Oct-20 19:37 36.227192 -122.149063 129 32193ft 449kts
17-Oct-20 19:38 36.146352 -122.031636 129 32995ft 448kts
17-Oct-20 19:39 36.065631 -121.914773 129 33006ft 444kts
17-Oct-20 19:40 35.985550 -121.799235 129 33006ft 442kts
17-Oct-20 19:41 35.905165 -121.683654 129 33006ft 442kts
17-Oct-20 19:42 35.824891 -121.568625 129 33004ft 443kts
17-Oct-20 19:43 35.744429 -121.453716 130 33002ft 444kts
17-Oct-20 19:44 35.663458 -121.338471 130 32997ft 445kts
17-Oct-20 19:45 35.582372 -121.223452 130 33002ft 446kts
17-Oct-20 19:46 35.501129 -121.108485 129 33002ft 447kts
17-Oct-20 19:47 35.435192 -120.980387 137 33021ft 446kts
17-Oct-20 19:48 35.341580 -120.879780 138 33008ft 449kts
17-Oct-20 19:49 35.247586 -120.778421 139 33011ft 450kts
17-Oct-20 19:50 35.162341 -120.686816 139 33014ft 450kts
17-Oct-20 19:51 35.077108 -120.595492 139 33017ft 451kts
17-Oct-20 19:52 34.984859 -120.512601 147 33027ft 450kts
17-Oct-20 19:53 34.889233 -120.435160 147 33031ft 451kts
17-Oct-20 19:54 34.784533 -120.350620 147 33029ft 452kts
17-Oct-20 19:55 34.688787 -120.273539 148 33027ft 452kts
17-Oct-20 19:56 34.583601 -120.189334 148 33027ft 453kts
17-Oct-20 19:57 34.487120 -120.112324 149 33023ft 453kts
17-Oct-20 19:58 34.381459 -120.028234 149 32999ft 454kts
17-Oct-20 19:59 34.275782 -119.944390 149 31947ft 451kts
17-Oct-20 20:00 34.168874 -119.859826 149 29751ft 461kts
17-Oct-20 20:01 34.066501 -119.765528 124 27554ft 470kts
17-Oct-20 20:02 33.998711 -119.633036 122 25286ft 455kts
17-Oct-20 20:03 33.934628 -119.505747 121 23167ft 433kts
17-Oct-20 20:04 33.873942 -119.384081 121 21144ft 416kts
17-Oct-20 20:05 33.815950 -119.266321 121 19198ft 400kts
17-Oct-20 20:06 33.760071 -119.153286 121 17268ft 387kts
17-Oct-20 20:07 33.705945 -119.044121 121 15442ft 371kts
17-Oct-20 20:08 33.654403 -118.940500 121 13717ft 353kts
17-Oct-20 20:09 33.604804 -118.841039 121 12055ft 341kts
17-Oct-20 20:10 33.568151 -118.742091 102 10776ft 310kts
17-Oct-20 20:11 33.550644 -118.644631 100 10118ft 296kts
17-Oct-20 20:12 33.534938 -118.547367 100 9493ft 296kts
17-Oct-20 20:13 33.537793 -118.450520 72 8744ft 302kts
17-Oct-20 20:14 33.558678 -118.358383 72 7577ft 287kts
17-Oct-20 20:15 33.576909 -118.276907 72 6518ft 280kts
17-Oct-20 20:16 33.595278 -118.193806 72 5383ft 268kts
17-Oct-20 20:17 33.613064 -118.116648 65 4997ft 232kts
17-Oct-20 20:18 33.645100 -118.060290 44 4488ft 225kts
17-Oct-20 20:19 33.688420 -118.007795 42 3771ft 211kts
17-Oct-20 20:20 33.728597 -117.959337 46 3073ft 204kts
17-Oct-20 20:21 33.763928 -117.908432 65 2910ft 207kts
17-Oct-20 20:22 33.766184 -117.847358 120 2234ft 184kts
17-Oct-20 20:23 33.726340 -117.835607 212 1329ft 151kts
17-Oct-20 20:24 33.689689 -117.860012 207 289ft 144kts
17-Oct-20 20:25 33.669514 -117.872062 146 65ft 10kts
17-Oct-20 20:26 33.670098 -117.869910 41 65ft 16kts
17-Oct-20 20:27 33.673228 -117.867092 42 65ft 12kts
17-Oct-20 20:28 33.676318 -117.865090 27 65ft 12kts
17-Oct-20 20:29 33.676939 -117.864510 69 65ft 0kts
17-Oct-20 20:31 33.676955 -117.864422 85 65ft 2kts
17-Oct-20 20:32 33.676831 -117.863999 118 65ft 0kts
17-Oct-20 20:33 33.676831 -117.863999 118 65ft 0kts
17-Oct-20 20:34 33.676831 -117.863999 118 65ft 0kts
17-Oct-20 20:35 33.676831 -117.863999 118 65ft 0kts
17-Oct-20 20:36 33.676831 -117.863999 118 65ft 0kts
17-Oct-20 20:37 33.676831 -117.863999 118 65ft 0kts
17-Oct-20 20:38 33.676831 -117.863999 118 65ft 0kts
17-Oct-20 20:39 33.676831 -117.863999 118 65ft 0kts
17-Oct-20 20:40 33.676831 -117.863999 118 65ft 0kts

Navigation Log

Ident Type
Flight plan parsing failed, navigation log unavailable